Higginsville, New York
Current Conditions -  °F | °C
As of 1:53 PM on Friday 24 Oct 2014 (Local Time) from KRME Reporting Station
Scattered Clouds Scattered Clouds  
Wind Chill: 16°   Ceiling: Unl
Heat Index: 16°   Visibility: 10mi
Dew Point:   Wind: 13mph
Humidity: 51%   Direction: 270°W
Pressure: 29.86"   Gusts: NA
Location:  43.1683°N, 75.6691°W
Report Text: KRME 241753Z 27011KT 10SM SCT060 16/06 A2986 RMK AO2 SLP110 T01560056 10156 20078 56021
Loading
Personal Weather Stations






























Interactive Weather Map
Tropical Storm Tracking
New forecast layout! Learn more

10-Day Weather Forecast

Advertisements
Track Severe Weather on mobile